Time;durP1;ratioP1;P1;durP2;ratioP2;P2;SDS_P1;SDS_P2;PMS_P1;PMS_P2;Temp;Humidity;BMP_temperature;BMP_pressure;BME280_temperature;BME280_humidity;BME280_pressure;Samples;Min_cycle;Max_cycle;Signal;HPM_P1;HPM_P2
2021/07/02 00:01:20;;;;;;;7.30;4.10;;;;;;;19.28;100.00;100564.56;1677601;85;21014;-80
2021/07/02 00:03:47;;;;;;;10.00;4.37;;;;;;;19.27;100.00;100547.12;1677311;85;21589;-82
2021/07/02 00:06:14;;;;;;;9.70;4.55;;;;;;;19.25;100.00;100535.11;1676942;85;21580;-82
2021/07/02 00:08:41;;;;;;;8.75;4.72;;;;;;;19.27;100.00;100545.01;1677228;85;21101;-83
2021/07/02 00:11:08;;;;;;;9.90;4.37;;;;;;;19.26;100.00;100539.41;1677366;85;21094;-84
2021/07/02 00:13:37;;;;;;;8.38;4.87;;;;;;;19.28;100.00;100518.52;1677060;85;21018;-81
2021/07/02 00:16:05;;;;;;;9.63;4.90;;;;;;;19.31;100.00;100501.09;1677414;85;21033;-89
2021/07/02 00:18:32;;;;;;;8.40;4.25;;;;;;;19.31;100.00;100512.11;1677086;85;20995;-89
2021/07/02 00:20:59;;;;;;;8.73;4.20;;;;;;;19.34;100.00;100526.25;1677209;85;21425;-89
2021/07/02 00:23:25;;;;;;;11.97;4.47;;;;;;;19.33;100.00;100524.63;1677212;85;21167;-85
2021/07/02 00:25:52;;;;;;;7.83;4.58;;;;;;;19.28;100.00;100525.58;1676805;85;21624;-85
2021/07/02 00:28:19;;;;;;;9.20;4.78;;;;;;;19.22;100.00;100523.11;1677465;85;21053;-88
2021/07/02 00:30:46;;;;;;;8.48;4.22;;;;;;;19.17;100.00;100528.04;1677137;85;21006;-88
2021/07/02 00:33:12;;;;;;;8.78;4.80;;;;;;;19.20;100.00;100540.05;1677248;85;21017;-89
2021/07/02 00:35:41;;;;;;;6.87;4.40;;;;;;;19.25;100.00;100546.95;1677171;85;21078;-89
2021/07/02 00:38:09;;;;;;;17.67;4.50;;;;;;;19.28;100.00;100557.98;1676878;85;21532;-91
2021/07/02 00:40:36;;;;;;;12.20;4.92;;;;;;;19.33;100.00;100560.98;1677248;85;20911;-85
2021/07/02 00:43:04;;;;;;;6.65;4.33;;;;;;;19.32;100.00;100558.49;1677566;85;21026;-85
2021/07/02 00:45:32;;;;;;;10.50;4.40;;;;;;;19.32;100.00;100554.55;1677130;85;21061;-88
2021/07/02 00:48:01;;;;;;;12.23;4.55;;;;;;;19.36;100.00;100564.61;1677534;85;21145;-88
2021/07/02 00:50:28;;;;;;;7.62;4.58;;;;;;;19.40;100.00;100557.25;1677540;85;20959;-87
2021/07/02 00:52:55;;;;;;;12.15;4.37;;;;;;;19.38;100.00;100545.52;1677401;85;20895;-86
2021/07/02 00:55:22;;;;;;;12.98;5.30;;;;;;;19.36;100.00;100550.14;1647875;85;20962;-88
2021/07/02 00:57:50;;;;;;;9.93;4.47;;;;;;;19.43;100.00;100555.09;1671784;85;20958;-84
2021/07/02 01:00:17;;;;;;;11.55;4.90;;;;;;;19.53;100.00;100557.09;1645112;85;21103;-87
2021/07/02 01:02:44;;;;;;;11.00;5.40;;;;;;;19.62;100.00;100557.13;1671477;85;20987;-87
2021/07/02 01:05:12;;;;;;;10.03;5.80;;;;;;;19.67;100.00;100554.83;1672052;85;21014;-87
2021/07/02 01:07:42;;;;;;;12.37;5.72;;;;;;;19.71;100.00;100543.81;1671758;85;21049;-88
2021/07/02 01:10:14;;;;;;;13.48;5.47;;;;;;;19.73;100.00;100536.57;1672276;85;21073;-87
2021/07/02 01:12:40;;;;;;;8.30;4.60;;;;;;;19.79;100.00;100520.61;1645925;85;21176;-89
2021/07/02 01:15:26;;;;;;;8.28;4.47;;;;;;;19.82;100.00;100496.58;1672624;85;20876;-87
2021/07/02 01:17:54;;;;;;;9.93;4.40;;;;;;;19.84;100.00;100499.89;1670692;85;21007;-86
2021/07/02 01:20:23;;;;;;;8.95;5.17;;;;;;;19.83;100.00;100493.79;1671987;85;21007;-90
2021/07/02 01:22:50;;;;;;;6.90;4.28;;;;;;;19.81;100.00;100487.87;1671621;85;21021;-89
2021/07/02 01:25:17;;;;;;;8.65;4.28;;;;;;;19.83;100.00;100491.16;1671863;85;21124;-89
2021/07/02 01:27:44;;;;;;;8.03;4.60;;;;;;;19.86;100.00;100491.31;1671342;85;21018;-87
2021/07/02 01:30:14;;;;;;;7.50;4.47;;;;;;;19.90;100.00;100471.57;1672108;85;21069;-90
2021/07/02 01:32:42;;;;;;;9.10;4.35;;;;;;;19.89;100.00;100455.43;1671725;85;21038;-91
2021/07/02 01:35:10;;;;;;;7.60;4.40;;;;;;;19.89;100.00;100452.30;1672272;85;21437;-84
2021/07/02 01:37:38;;;;;;;9.20;4.03;;;;;;;19.88;100.00;100439.29;1671839;85;21252;-88
2021/07/02 01:40:07;;;;;;;7.67;4.10;;;;;;;19.84;100.00;100423.03;1672142;85;21422;-88
2021/07/02 01:42:34;;;;;;;11.25;5.15;;;;;;;19.84;100.00;100414.30;1671733;85;21081;-87
2021/07/02 01:45:02;;;;;;;5.03;4.25;;;;;;;19.84;100.00;100407.72;1672083;85;21869;-85
2021/07/02 01:47:29;;;;;;;7.78;4.10;;;;;;;19.87;100.00;100415.28;1671837;85;21061;-86
2021/07/02 01:49:58;;;;;;;4.45;3.85;;;;;;;19.88;100.00;100407.69;1671792;85;21180;-90
2021/07/02 01:52:27;;;;;;;7.50;4.75;;;;;;;19.88;100.00;100406.37;1672007;85;20939;-90
2021/07/02 01:54:55;;;;;;;5.55;3.95;;;;;;;19.86;100.00;100396.52;1644759;85;21111;-89
2021/07/02 01:57:27;;;;;;;5.85;4.30;;;;;;;19.83;100.00;100387.62;1671730;85;20971;-85
2021/07/02 01:59:55;;;;;;;6.15;3.95;;;;;;;19.84;100.00;100395.38;1672085;85;20962;-89
2021/07/02 02:02:23;;;;;;;7.10;4.47;;;;;;;19.85;100.00;100419.87;1671858;85;21158;-89
2021/07/02 02:04:52;;;;;;;5.78;4.00;;;;;;;19.84;100.00;100453.80;1671685;85;21122;-85
2021/07/02 02:07:19;;;;;;;8.75;3.65;;;;;;;19.81;100.00;100455.45;1671904;85;21028;-89
2021/07/02 02:09:46;;;;;;;8.90;3.62;;;;;;;19.81;100.00;100455.45;1672050;85;21031;-88
2021/07/02 02:12:14;;;;;;;7.10;4.22;;;;;;;19.79;100.00;100459.55;1671805;85;20923;-88
2021/07/02 02:14:44;;;;;;;6.40;3.67;;;;;;;19.82;100.00;100483.41;1671718;84;20979;-88
2021/07/02 02:17:13;;;;;;;5.30;3.62;;;;;;;19.86;100.00;100484.73;1643161;87;21074;-86
2021/07/02 02:19:41;;;;;;;6.15;3.30;;;;;;;19.87;100.00;100481.13;1673343;85;21584;-89
2021/07/02 02:22:08;;;;;;;7.28;3.52;;;;;;;19.88;100.00;100482.75;1672077;85;21509;-91
2021/07/02 02:24:36;;;;;;;6.30;3.62;;;;;;;19.88;100.00;100484.06;1671384;85;20872;-88
2021/07/02 02:27:04;;;;;;;8.28;3.70;;;;;;;19.87;100.00;100478.48;1672317;85;21159;-88
2021/07/02 02:29:31;;;;;;;5.33;3.27;;;;;;;19.89;100.00;100475.18;1671936;85;21019;-89
2021/07/02 02:31:58;;;;;;;5.87;3.80;;;;;;;19.89;100.00;100479.13;1671874;85;20879;-85
2021/07/02 02:34:26;;;;;;;5.00;2.92;;;;;;;19.88;100.00;100479.62;1671847;85;21510;-86
2021/07/02 02:36:52;;;;;;;3.25;2.80;;;;;;;19.87;100.00;100484.58;1671785;85;20970;-88
2021/07/02 02:39:20;;;;;;;7.47;3.20;;;;;;;19.85;100.00;100465.95;1671908;85;21137;-87
2021/07/02 02:41:47;;;;;;;8.05;3.30;;;;;;;19.79;100.00;100465.30;1671759;85;20867;-90
2021/07/02 02:44:15;;;;;;;7.28;3.62;;;;;;;19.68;100.00;100453.80;1672245;85;21050;-88
2021/07/02 02:46:44;;;;;;;9.40;4.28;;;;;;;19.63;100.00;100456.92;1671885;85;20975;-91
2021/07/02 02:49:11;;;;;;;4.92;3.37;;;;;;;19.57;100.00;100452.31;1671761;85;21007;-88
2021/07/02 02:51:38;;;;;;;5.80;3.60;;;;;;;19.53;100.00;100466.78;1671829;85;21134;-85
2021/07/02 02:54:06;;;;;;;13.35;11.38;;;;;;;19.49;100.00;100474.20;1671860;85;21006;-84
2021/07/02 02:56:33;;;;;;;6.17;4.50;;;;;;;19.49;100.00;100472.06;1675563;85;20927;-83
2021/07/02 02:59:00;;;;;;;8.38;3.50;;;;;;;19.52;100.00;100471.25;1677217;85;21620;-87
2021/07/02 03:01:29;;;;;;;6.87;3.25;;;;;;;19.57;100.00;100479.12;1676972;85;21061;-83
2021/07/02 03:03:56;;;;;;;7.90;3.45;;;;;;;19.54;100.00;100471.89;1676871;85;21091;-83
2021/07/02 03:06:23;;;;;;;9.23;4.15;;;;;;;19.54;100.00;100471.06;1677059;85;21027;-86
2021/07/02 03:08:50;;;;;;;7.10;3.45;;;;;;;19.51;100.00;100477.48;1650067;85;21053;-83
2021/07/02 03:11:21;;;;;;;4.70;2.75;;;;;;;19.47;100.00;100488.00;1677104;85;20972;-88
2021/07/02 03:13:47;;;;;;;7.97;2.10;;;;;;;19.49;100.00;100501.02;1677106;85;20950;-84
2021/07/02 03:16:15;;;;;;;5.05;2.90;;;;;;;19.53;100.00;100500.51;1677419;85;22275;-84
2021/07/02 03:18:45;;;;;;;6.00;2.80;;;;;;;19.60;100.00;100496.73;1676914;85;20982;-82
2021/07/02 03:21:12;;;;;;;5.00;3.10;;;;;;;19.66;100.00;100492.62;1677015;85;21042;-86
2021/07/02 03:23:39;;;;;;;5.58;2.55;;;;;;;19.65;100.00;100493.14;1677108;85;20975;-84
2021/07/02 03:26:06;;;;;;;6.97;3.08;;;;;;;19.65;100.00;100501.03;1650346;85;20915;-85
2021/07/02 03:28:35;;;;;;;8.20;2.58;;;;;;;19.66;100.00;100503.97;1677262;85;21146;-85
2021/07/02 03:31:03;;;;;;;4.53;2.55;;;;;;;19.69;100.00;100502.85;1677084;85;20920;-84
2021/07/02 03:33:31;;;;;;;3.72;2.30;;;;;;;19.72;100.00;100510.42;1677337;85;21562;-84
2021/07/02 03:36:00;;;;;;;7.83;2.52;;;;;;;19.73;100.00;100510.23;1677557;85;21430;-88
2021/07/02 03:38:27;;;;;;;4.75;2.47;;;;;;;19.76;100.00;100519.13;1677722;85;20879;-85
2021/07/02 03:40:54;;;;;;;6.35;2.65;;;;;;;19.81;100.00;100527.38;1676902;85;21177;-85
2021/07/02 03:43:21;;;;;;;6.37;2.77;;;;;;;19.86;100.00;100549.25;1677099;85;21587;-84
2021/07/02 03:45:50;;;;;;;2.95;2.12;;;;;;;19.90;100.00;100550.09;1676835;85;21124;-85
2021/07/02 03:48:20;;;;;;;6.45;2.83;;;;;;;19.94;100.00;100562.45;1677219;85;21837;-88
2021/07/02 03:50:48;;;;;;;5.00;3.00;;;;;;;19.98;100.00;100570.33;1676820;85;20938;-86
2021/07/02 03:53:15;;;;;;;7.90;2.80;;;;;;;19.88;100.00;100576.23;1677169;85;21453;-87
2021/07/02 03:55:42;;;;;;;7.80;3.35;;;;;;;19.78;100.00;100577.73;1676657;85;22048;-86
2021/07/02 03:58:09;;;;;;;7.05;4.37;;;;;;;19.78;100.00;100572.47;1676988;85;20975;-86
2021/07/02 04:00:36;;;;;;;7.62;4.03;;;;;;;19.83;100.00;100574.59;1676816;85;20995;-87
2021/07/02 04:03:03;;;;;;;6.75;4.70;;;;;;;19.87;100.00;100578.08;1677173;85;21014;-83
2021/07/02 04:05:31;;;;;;;6.90;4.97;;;;;;;19.92;100.00;100580.20;1676876;85;22015;-83
2021/07/02 04:07:58;;;;;;;7.92;4.17;;;;;;;19.97;100.00;100588.45;1676929;85;21015;-83
2021/07/02 04:10:25;;;;;;;4.28;3.20;;;;;;;20.02;100.00;100583.02;1677214;85;21035;-85
2021/07/02 04:12:53;;;;;;;14.35;5.95;;;;;;;20.07;100.00;100589.09;1676949;85;21039;-82
2021/07/02 04:15:20;;;;;;;5.92;3.50;;;;;;;20.06;100.00;100585.66;1677106;85;21619;-81
2021/07/02 04:17:49;;;;;;;10.00;3.30;;;;;;;20.10;100.00;100582.70;1677274;85;21426;-81
2021/07/02 04:20:16;;;;;;;7.20;2.75;;;;;;;20.14;100.00;100590.58;1676919;85;21098;-81
2021/07/02 04:22:44;;;;;;;4.12;2.72;;;;;;;20.20;100.00;100594.70;1676863;85;20947;-80
2021/07/02 04:25:11;;;;;;;6.33;3.30;;;;;;;20.27;100.00;100595.73;1677229;85;20995;-81
2021/07/02 04:27:40;;;;;;;5.90;2.90;;;;;;;20.35;100.00;100590.96;1676803;85;20966;-80
2021/07/02 04:30:09;;;;;;;8.30;3.00;;;;;;;20.40;100.00;100588.15;1676854;85;21214;-82
2021/07/02 04:32:36;;;;;;;6.22;2.70;;;;;;;20.48;100.00;100588.65;1677046;85;20948;-82
2021/07/02 04:35:05;;;;;;;7.15;3.27;;;;;;;20.49;100.00;100596.37;1677005;85;21572;-81
2021/07/02 04:37:32;;;;;;;19.20;3.40;;;;;;;20.46;100.00;100602.47;1677137;85;20942;-80
2021/07/02 04:39:58;;;;;;;5.65;3.12;;;;;;;20.50;100.00;100603.80;1676872;85;20923;-80
2021/07/02 04:42:26;;;;;;;7.83;3.25;;;;;;;20.54;100.00;100606.44;1676992;85;21162;-79
2021/07/02 04:44:54;;;;;;;6.40;3.50;;;;;;;20.58;100.00;100611.71;1676993;85;21097;-78
2021/07/02 04:47:22;;;;;;;5.78;3.45;;;;;;;20.62;100.00;100607.73;1677224;85;20994;-79
2021/07/02 04:49:49;;;;;;;6.20;3.50;;;;;;;20.66;100.00;100618.28;1676921;85;20998;-79
2021/07/02 04:52:15;;;;;;;6.80;3.15;;;;;;;20.68;100.00;100610.22;1677160;85;21034;-80
2021/07/02 04:54:43;;;;;;;4.85;3.33;;;;;;;20.67;100.00;100604.11;1676760;85;21246;-79
2021/07/02 04:57:10;;;;;;;7.42;3.25;;;;;;;20.69;100.00;100607.88;1676748;85;21081;-79
2021/07/02 04:59:39;;;;;;;6.90;3.17;;;;;;;20.70;100.00;100616.13;1676764;85;22070;-79
2021/07/02 05:02:10;;;;;;;8.35;3.10;;;;;;;20.73;100.00;100611.84;1676691;85;21014;-79
2021/07/02 05:04:34;;;;;;;8.45;3.12;;;;;;;20.72;100.00;100616.77;1675790;85;20958;-80
2021/07/02 05:07:03;;;;;;;7.28;3.10;;;;;;;20.72;100.00;100631.28;1676958;85;21544;-80
2021/07/02 05:09:30;;;;;;;6.42;2.87;;;;;;;20.73;100.00;100632.94;1677157;85;21045;-79
2021/07/02 05:11:57;;;;;;;4.25;2.87;;;;;;;20.73;100.00;100633.77;1676970;85;21565;-80
2021/07/02 05:14:24;;;;;;;5.08;2.60;;;;;;;20.72;100.00;100635.23;1677086;85;21058;-80
2021/07/02 05:16:52;;;;;;;6.37;2.40;;;;;;;20.73;100.00;100635.09;1676709;85;21104;-80
2021/07/02 05:19:18;;;;;;;7.70;2.70;;;;;;;20.76;100.00;100637.39;1677043;85;21464;-80
2021/07/02 05:21:47;;;;;;;6.55;3.20;;;;;;;20.75;100.00;100641.00;1676716;85;21069;-81
2021/07/02 05:24:13;;;;;;;5.50;3.30;;;;;;;20.75;100.00;100653.36;1676848;85;20958;-82
2021/07/02 05:26:41;;;;;;;6.55;3.22;;;;;;;20.74;100.00;100643.83;1676938;85;21124;-83
2021/07/02 05:29:07;;;;;;;5.10;3.10;;;;;;;20.75;100.00;100638.86;1677048;85;21007;-82
2021/07/02 05:31:35;;;;;;;10.98;3.20;;;;;;;20.77;100.00;100640.33;1677146;85;21156;-82
2021/07/02 05:34:06;;;;;;;8.70;3.05;;;;;;;20.86;100.00;100635.88;1650929;85;21016;-82
2021/07/02 05:36:33;;;;;;;7.83;3.50;;;;;;;20.93;100.00;100640.30;1676784;85;21006;-80
2021/07/02 05:39:00;;;;;;;7.60;3.05;;;;;;;21.02;100.00;100645.08;1676850;85;20935;-79
2021/07/02 05:41:27;;;;;;;7.25;3.08;;;;;;;21.05;100.00;100648.70;1677218;85;20903;-79
2021/07/02 05:43:53;;;;;;;5.62;2.80;;;;;;;21.05;100.00;100646.06;1677048;85;21163;-79
2021/07/02 05:46:20;;;;;;;4.87;3.02;;;;;;;21.07;100.00;100644.90;1677073;85;21478;-80
2021/07/02 05:48:48;;;;;;;7.05;3.20;;;;;;;21.09;100.00;100646.09;1677059;85;21136;-81
2021/07/02 05:51:15;;;;;;;7.28;3.45;;;;;;;21.13;100.00;100651.83;1677104;85;20958;-82
2021/07/02 05:53:42;;;;;;;7.53;3.12;;;;;;;21.20;100.00;100655.44;1676949;85;21078;-83
2021/07/02 05:56:08;;;;;;;6.40;3.05;;;;;;;21.26;100.00;100658.23;1676789;84;21489;-82
2021/07/02 05:58:35;;;;;;;5.20;3.33;;;;;;;21.32;100.00;100660.67;1676908;85;21006;-82
2021/07/02 06:01:02;;;;;;;6.62;3.00;;;;;;;21.37;100.00;100657.05;1677010;85;21609;-81
2021/07/02 06:03:29;;;;;;;6.08;2.85;;;;;;;21.40;100.00;100661.49;1677039;85;21589;-81
2021/07/02 06:05:55;;;;;;;8.85;3.85;;;;;;;21.44;100.00;100659.33;1677238;85;20975;-81
2021/07/02 06:08:23;;;;;;;7.83;3.87;;;;;;;21.47;100.00;100659.81;1677077;85;21501;-81
2021/07/02 06:10:49;;;;;;;6.30;3.52;;;;;;;21.50;100.00;100648.09;1676958;85;20939;-80
2021/07/02 06:13:16;;;;;;;8.60;3.30;;;;;;;21.54;100.00;100645.41;1676943;85;21053;-81
2021/07/02 06:15:45;;;;;;;6.28;3.10;;;;;;;21.56;100.00;100645.58;1676857;85;21492;-80
2021/07/02 06:18:11;;;;;;;10.23;3.85;;;;;;;21.55;100.00;100647.06;1650441;85;21125;-81
2021/07/02 06:20:39;;;;;;;7.42;3.55;;;;;;;21.55;100.00;100653.66;1675047;85;21414;-79
2021/07/02 06:23:05;;;;;;;6.35;2.90;;;;;;;21.56;100.00;100661.42;1675269;85;21624;-79
2021/07/02 06:25:33;;;;;;;9.85;3.20;;;;;;;21.59;100.00;100657.61;1675710;85;21073;-78
2021/07/02 06:27:59;;;;;;;5.65;3.05;;;;;;;21.63;100.00;100662.36;1675406;85;21097;-78
2021/07/02 06:30:26;;;;;;;5.78;2.95;;;;;;;21.67;100.00;100672.58;1675681;85;21081;-83
2021/07/02 06:32:53;;;;;;;9.28;3.10;;;;;;;21.65;100.00;100668.80;1675720;85;21156;-79
2021/07/02 06:35:20;;;;;;;4.97;2.80;;;;;;;21.69;100.00;100673.25;1675789;85;21474;-78
2021/07/02 06:37:50;;;;;;;6.90;3.50;;;;;;;21.71;100.00;100676.03;1675750;85;21117;-82
2021/07/02 06:40:18;;;;;;;6.55;3.87;;;;;;;21.74;100.00;100673.05;1677062;85;21050;-78
2021/07/02 06:42:45;;;;;;;8.28;5.17;;;;;;;21.80;100.00;100668.88;1675542;85;21105;-78
2021/07/02 06:45:12;;;;;;;6.33;4.00;;;;;;;21.82;100.00;100668.23;1675120;85;21167;-81
2021/07/02 06:48:01;;;;;;;10.32;4.25;;;;;;;21.81;100.00;100671.36;1675503;85;21576;-80
2021/07/02 06:50:30;;;;;;;9.48;4.95;;;;;;;21.88;100.00;100667.04;1674819;84;21128;-80
2021/07/02 06:52:59;;;;;;;9.75;4.72;;;;;;;22.04;100.00;100667.47;1675705;85;20994;-78
2021/07/02 06:55:26;;;;;;;8.95;4.65;;;;;;;22.23;100.00;100675.44;1675686;85;21062;-82
2021/07/02 06:57:54;;;;;;;6.53;4.28;;;;;;;22.38;100.00;100672.34;1675587;85;21151;-80
2021/07/02 07:00:21;;;;;;;12.73;4.58;;;;;;;22.46;100.00;100663.83;1675596;85;21011;-79
2021/07/02 07:02:48;;;;;;;9.35;3.00;;;;;;;22.54;100.00;100666.92;1676314;85;21006;-79
2021/07/02 07:05:26;;;;;;;6.05;2.70;;;;;;;22.58;100.00;100665.58;1674083;85;20958;-79
2021/07/02 07:07:53;;;;;;;5.05;2.65;;;;;;;22.63;100.00;100661.38;1674867;85;21113;-81
2021/07/02 07:10:20;;;;;;;6.70;3.58;;;;;;;22.72;100.00;100662.16;1675721;85;21101;-82
2021/07/02 07:12:48;;;;;;;9.58;3.15;;;;;;;22.84;100.00;100659.42;1676183;85;21482;-81
2021/07/02 07:15:17;;;;;;;6.83;3.00;;;;;;;22.89;100.00;100658.36;1676003;85;21560;-84
2021/07/02 07:17:55;;;;;;;7.80;3.20;;;;;;;22.96;100.00;100658.46;1675367;85;21044;-82
2021/07/02 07:20:22;;;;;;;10.20;3.62;;;;;;;23.08;100.00;100658.33;1671104;85;21125;-81
2021/07/02 07:22:49;;;;;;;3.90;3.20;;;;;;;23.17;100.00;100659.88;1675480;85;21218;-83
2021/07/02 07:25:25;;;;;;;5.95;3.90;;;;;;;23.23;100.00;100660.47;1675311;85;21023;-81
2021/07/02 07:27:53;;;;;;;8.80;3.30;;;;;;;23.30;100.00;100659.23;1675254;85;21094;-83
2021/07/02 07:30:24;;;;;;;6.72;3.33;;;;;;;23.38;100.00;100660.48;1677070;85;21030;-86
2021/07/02 07:32:53;;;;;;;4.10;2.90;;;;;;;23.44;100.00;100662.42;1676536;85;21543;-79
2021/07/02 07:35:31;;;;;;;8.03;4.05;;;;;;;23.50;100.00;100661.18;1676854;85;21167;-79
2021/07/02 07:37:57;;;;;;;8.50;4.30;;;;;;;23.53;96.39;100665.28;1675782;85;21228;-83
2021/07/02 07:40:27;;;;;;;12.45;4.15;;;;;;;23.41;100.00;100657.49;1676063;85;21092;-81
2021/07/02 07:42:54;;;;;;;8.90;4.45;;;;;;;23.31;100.00;100660.89;1676115;85;20930;-83
2021/07/02 07:45:21;;;;;;;9.30;4.00;;;;;;;23.17;100.00;100662.03;1676207;85;21520;-84
2021/07/02 07:47:49;;;;;;;7.78;3.95;;;;;;;23.10;100.00;100657.66;1676024;85;21137;-83
2021/07/02 07:50:25;;;;;;;9.78;4.35;;;;;;;23.03;100.00;100662.03;1675435;85;21037;-83
2021/07/02 07:53:01;;;;;;;6.58;4.40;;;;;;;22.91;100.00;100662.16;1675767;85;21611;-89
2021/07/02 07:55:36;;;;;;;7.53;4.10;;;;;;;22.93;100.00;100664.12;1675780;85;21667;-78
2021/07/02 07:58:10;;;;;;;4.97;3.83;;;;;;;22.92;100.00;100662.47;1674533;84;21070;-84
2021/07/02 08:00:42;;;;;;;8.73;4.20;;;;;;;22.95;100.00;100666.07;1674741;85;21643;-90
2021/07/02 08:03:09;;;;;;;7.85;3.62;;;;;;;23.00;100.00;100665.05;1674720;85;20867;-80
2021/07/02 08:05:53;;;;;;;6.87;3.35;;;;;;;23.06;97.94;100662.50;1675121;85;21081;-78
2021/07/02 08:08:18;;;;;;;7.80;3.37;;;;;;;23.15;98.54;100656.11;1673946;84;21078;-81
2021/07/02 08:10:55;;;;;;;8.10;3.85;;;;;;;23.28;97.12;100655.96;1674207;85;20978;-81
2021/07/02 08:13:28;;;;;;;6.12;3.40;;;;;;;23.41;96.62;100655.67;1649593;85;21767;-86
2021/07/02 08:15:58;;;;;;;9.50;3.70;;;;;;;23.58;96.74;100656.30;1674025;85;21025;-85
2021/07/02 08:18:22;;;;;;;6.70;3.60;;;;;;;23.82;95.97;100648.00;1672870;85;21178;-82
2021/07/02 08:20:49;;;;;;;7.28;4.00;;;;;;;23.86;90.14;100645.30;1674420;85;21612;-81
2021/07/02 08:23:16;;;;;;;8.35;3.87;;;;;;;23.86;91.62;100646.63;1674650;84;45785;-85
2021/07/02 08:25:43;;;;;;;5.78;3.40;;;;;;;23.81;91.98;100642.88;1676791;85;21933;-79
2021/07/02 08:30:55;;;;;;;8.50;3.80;;;;;;;23.77;90.19;100645.11;1677828;85;21118;-83
2021/07/02 08:33:22;;;;;;;6.80;4.05;;;;;;;23.78;90.14;100641.42;1674923;85;21023;-86
2021/07/02 08:35:55;;;;;;;5.95;3.58;;;;;;;23.80;90.25;100642.08;1676033;85;21071;-80
2021/07/02 08:38:23;;;;;;;10.65;3.62;;;;;;;23.88;89.38;100635.83;1668929;84;21122;-80
2021/07/02 08:40:50;;;;;;;8.25;3.60;;;;;;;23.88;88.73;100627.88;1676069;85;21003;-80
2021/07/02 08:43:17;;;;;;;7.55;3.90;;;;;;;23.89;88.57;100627.70;1647381;85;21153;-80
2021/07/02 08:45:44;;;;;;;5.95;3.50;;;;;;;23.95;86.99;100619.48;1675644;85;21126;-81
2021/07/02 08:48:12;;;;;;;4.67;3.33;;;;;;;23.98;85.77;100621.77;1674377;85;21141;-84
2021/07/02 08:50:40;;;;;;;5.45;3.27;;;;;;;24.01;84.80;100618.23;1638598;85;21134;-83
2021/07/02 08:53:09;;;;;;;8.68;3.47;;;;;;;24.14;84.48;100614.92;1674378;84;21010;-86
2021/07/02 08:55:39;;;;;;;8.63;3.47;;;;;;;24.25;84.58;100612.27;1643437;86;21730;-85
2021/07/02 08:58:13;;;;;;;5.22;3.05;;;;;;;24.38;83.92;100612.38;1669174;84;21474;-83
2021/07/02 09:00:42;;;;;;;5.70;3.35;;;;;;;24.46;77.73;100606.42;1666889;85;21079;-79
2021/07/02 09:03:30;;;;;;;6.65;3.40;;;;;;;24.35;77.68;100605.61;1671799;85;21075;-86
2021/07/02 09:06:12;;;;;;;6.25;3.47;;;;;;;24.35;80.48;100600.80;1668131;86;21051;-82
2021/07/02 09:08:42;;;;;;;8.45;3.70;;;;;;;24.55;77.23;100593.33;1672253;84;21034;-81
2021/07/02 09:11:27;;;;;;;6.15;3.45;;;;;;;24.76;80.57;100592.45;1665441;84;21105;-80
2021/07/02 09:13:56;;;;;;;8.80;3.27;;;;;;;24.93;79.01;100592.47;1671236;85;21124;-87
2021/07/02 09:16:40;;;;;;;5.60;2.90;;;;;;;24.99;76.71;100585.05;1666767;86;21153;-82
2021/07/02 09:19:29;;;;;;;3.25;2.60;;;;;;;25.02;76.32;100585.98;1670841;85;21783;-85
2021/07/02 09:22:17;;;;;;;8.68;3.62;;;;;;;25.12;74.92;100577.15;1666959;84;20983;-83
2021/07/02 09:24:48;;;;;;;7.20;3.70;;;;;;;25.13;75.66;100585.94;1667033;84;21080;-80
2021/07/02 09:27:33;;;;;;;7.83;3.08;;;;;;;25.13;74.49;100584.61;1667127;84;21142;-82
2021/07/02 09:30:10;;;;;;;7.60;3.12;;;;;;;25.06;74.09;100579.27;1670850;85;21227;-81
2021/07/02 09:32:51;;;;;;;4.78;3.08;;;;;;;25.03;75.81;100570.88;1636478;86;21549;-77
2021/07/02 09:35:18;;;;;;;4.95;3.10;;;;;;;25.10;74.38;100579.70;1651904;85;20896;-82
2021/07/02 09:37:51;;;;;;;8.60;4.92;;;;;;;25.10;75.48;100578.37;1666747;86;21607;-82
2021/07/02 09:40:22;;;;;;;6.70;4.25;;;;;;;25.11;74.96;100580.02;1671118;85;21076;-79
2021/07/02 09:43:11;;;;;;;7.03;4.25;;;;;;;25.17;74.06;100593.83;1666538;84;21116;-81
2021/07/02 09:45:54;;;;;;;11.53;4.90;;;;;;;25.24;71.43;100590.67;1670596;85;21058;-79
2021/07/02 09:48:25;;;;;;;;;;;;;;;25.15;69.33;100582.06;1669328;86;21101;-82
2021/07/02 09:50:57;;;;;;;6.72;3.72;;;;;;;25.14;71.34;100584.40;1666928;84;20209;-88
2021/07/02 09:53:30;;;;;;;;;;;;;;;25.32;73.55;100593.68;1673559;85;21050;-88
2021/07/02 09:55:58;;;;;;;;;;;;;;;25.47;71.22;100585.86;1669063;84;21110;-77
2021/07/02 09:58:29;;;;;;;5.62;3.15;;;;;;;25.51;70.36;100584.99;1670111;82;20144;-81
2021/07/02 10:00:59;;;;;;;9.28;4.05;;;;;;;25.46;70.75;100585.58;1676245;85;21077;-77
2021/07/02 10:03:36;;;;;;;10.30;3.72;;;;;;;25.44;73.76;100583.61;1674360;84;21696;-79
2021/07/02 10:06:21;;;;;;;9.98;3.40;;;;;;;25.60;71.62;100579.30;1676216;85;22192;-82
2021/07/02 10:08:50;;;;;;;6.92;3.25;;;;;;;25.66;71.06;100573.17;1674498;85;21066;-82
2021/07/02 10:11:17;;;;;;;5.83;3.17;;;;;;;25.75;69.68;100584.46;1675988;85;20907;-84
2021/07/02 10:13:46;;;;;;;4.72;3.15;;;;;;;25.83;69.70;100576.28;1672568;85;21118;-85
2021/07/02 10:16:14;;;;;;;6.53;4.50;;;;;;;26.12;69.83;100567.92;1676513;85;20994;-86
2021/07/02 10:18:48;;;;;;;7.40;3.83;;;;;;;26.48;68.22;100562.72;1674523;85;21270;-86
2021/07/02 10:21:17;;;;;;;6.08;3.20;;;;;;;26.60;63.61;100569.05;1676244;84;21075;-82
2021/07/02 10:24:07;;;;;;;6.60;4.58;;;;;;;26.55;64.54;100566.20;1674761;84;21183;-85
2021/07/02 10:26:36;;;;;;;8.43;4.50;;;;;;;26.53;63.56;100566.90;1659845;85;21051;-94
2021/07/02 10:29:07;;;;;;;5.25;3.20;;;;;;;26.50;65.67;100565.98;1648325;84;21471;-83
2021/07/02 10:31:36;;;;;;;6.72;3.15;;;;;;;26.47;63.72;100567.22;1676027;85;21087;-85
2021/07/02 10:34:03;;;;;;;11.93;4.42;;;;;;;26.36;63.29;100559.85;1670188;84;21483;-81
2021/07/02 10:36:33;;;;;;;5.15;3.60;;;;;;;26.26;64.04;100564.80;1676352;85;21055;-85
2021/07/02 10:39:04;;;;;;;6.03;3.62;;;;;;;26.22;63.77;100562.23;1675579;85;21050;-92
2021/07/02 10:41:32;;;;;;;9.03;3.92;;;;;;;26.18;64.53;100563.14;1662620;85;21027;-90
2021/07/02 10:44:22;;;;;;;3.90;2.95;;;;;;;26.38;66.55;100560.98;1674355;84;21105;-90
2021/07/02 10:47:03;;;;;;;6.58;3.12;;;;;;;26.57;64.19;100566.30;1673999;85;21154;-89
2021/07/02 10:49:38;;;;;;;8.03;3.45;;;;;;;26.67;64.57;100569.35;1674777;85;21085;-85
2021/07/02 10:52:26;;;;;;;8.85;3.58;;;;;;;26.91;65.85;100567.88;1676212;85;21192;-82
2021/07/02 10:54:54;;;;;;;24.12;5.37;;;;;;;26.84;62.28;100575.05;1674364;85;21082;-89
2021/07/02 10:57:23;;;;;;;10.08;3.98;;;;;;;26.66;61.50;100586.84;1676269;85;21082;-85
2021/07/02 10:59:56;;;;;;;9.13;3.55;;;;;;;26.64;62.04;100585.73;1700010;84;21112;-89
2021/07/02 11:02:25;;;;;;;9.65;3.87;;;;;;;26.48;62.11;100587.50;1698364;84;20970;-90
2021/07/02 11:04:58;;;;;;;7.78;3.50;;;;;;;26.43;63.80;100589.94;1697409;84;21062;-81
2021/07/02 11:07:30;;;;;;;10.13;4.58;;;;;;;26.36;64.38;100587.79;1697103;83;21066;-88
2021/07/02 11:10:02;;;;;;;8.63;3.17;;;;;;;26.15;64.93;100582.14;1698977;84;21065;-83
2021/07/02 11:12:44;;;;;;;11.75;3.47;;;;;;;26.09;65.86;100586.13;1698581;84;21109;-89
2021/07/02 11:15:18;;;;;;;6.47;3.30;;;;;;;26.06;66.69;100582.55;1676325;84;20986;-83
2021/07/02 11:17:53;;;;;;;4.12;3.00;;;;;;;26.23;65.37;100579.81;1698191;84;21678;-87
2021/07/02 11:20:25;;;;;;;4.87;3.00;;;;;;;26.46;62.72;100571.41;1697121;84;21144;-85
2021/07/02 11:23:20;;;;;;;5.47;2.35;;;;;;;26.67;61.61;100573.34;1698451;84;21620;-85
2021/07/02 11:25:57;;;;;;;5.25;2.45;;;;;;;26.76;60.89;100560.11;1698082;84;21128;-90
2021/07/02 11:28:40;;;;;;;3.67;2.50;;;;;;;26.80;61.76;100562.67;1698428;84;21664;-83
2021/07/02 11:31:06;;;;;;;6.05;2.20;;;;;;;27.06;59.30;100555.66;1697460;83;21106;-80
2021/07/02 11:33:34;;;;;;;6.75;2.87;;;;;;;27.58;58.72;100557.25;1698432;84;21590;-85